Time;durP1;ratioP1;P1;durP2;ratioP2;P2;SDS_P1;SDS_P2;PMS_P1;PMS_P2;Temp;Humidity;BMP_temperature;BMP_pressure;BME280_temperature;BME280_humidity;BME280_pressure;Samples;Min_cycle;Max_cycle;Signal;HPM_P1;HPM_P2
2023/10/06 00:00:53;;;;;;;6.50;2.80;;;;;;;20.42;47.25;100912.10;107820;1280;21992;-65
2023/10/06 00:03:21;;;;;;;5.10;2.60;;;;;;;20.47;47.30;100907.95;107825;1281;21979;-59
2023/10/06 00:05:48;;;;;;;6.80;2.80;;;;;;;20.52;47.37;100902.77;107847;1283;21999;-59
2023/10/06 00:08:17;;;;;;;6.10;2.80;;;;;;;20.56;47.27;100903.09;107894;1289;22004;-65
2023/10/06 00:10:52;;;;;;;7.00;3.30;;;;;;;20.61;47.30;100902.86;107865;1283;21992;-59
2023/10/06 00:13:20;;;;;;;5.50;2.70;;;;;;;20.66;47.65;100897.30;107859;1283;21997;-65
2023/10/06 00:15:46;;;;;;;7.00;2.80;;;;;;;20.70;47.61;100895.73;107802;1289;21992;-66
2023/10/06 00:18:16;;;;;;;10.20;3.00;;;;;;;20.73;47.50;100893.45;107946;1280;21993;-65
2023/10/06 00:20:48;;;;;;;6.00;2.90;;;;;;;20.76;47.77;100889.70;107963;1289;21997;-59
2023/10/06 00:23:27;;;;;;;7.00;2.70;;;;;;;20.78;47.98;100883.57;107918;1288;21992;-59
2023/10/06 00:25:55;;;;;;;4.90;2.60;;;;;;;20.80;47.75;100876.70;107813;1289;21995;-66
2023/10/06 00:28:27;;;;;;;6.90;2.70;;;;;;;20.84;47.91;100877.41;107851;1280;22003;-66
2023/10/06 00:30:56;;;;;;;6.90;2.90;;;;;;;20.88;48.26;100880.28;107838;1289;21999;-59
2023/10/06 00:33:38;;;;;;;7.40;3.00;;;;;;;20.88;48.18;100880.06;107906;1280;22001;-59
2023/10/06 00:36:13;;;;;;;6.80;2.50;;;;;;;20.92;48.24;100877.59;107902;1289;22037;-59
2023/10/06 00:38:47;;;;;;;6.90;2.50;;;;;;;20.96;48.57;100872.95;107911;1289;21992;-59
2023/10/06 00:41:15;;;;;;;4.10;2.20;;;;;;;20.98;49.05;100873.18;107878;1283;21993;-59
2023/10/06 00:43:43;;;;;;;5.30;2.60;;;;;;;21.00;48.80;100872.02;107843;1289;22054;-65
2023/10/06 00:46:10;;;;;;;5.80;2.70;;;;;;;21.02;48.63;100870.29;107827;1283;22001;-59
2023/10/06 00:48:39;;;;;;;3.90;2.00;;;;;;;21.06;48.68;100869.42;107902;1289;22002;-60
2023/10/06 00:51:13;;;;;;;6.40;2.40;;;;;;;21.09;49.31;100864.09;107890;1289;22000;-65
2023/10/06 00:53:42;;;;;;;4.70;2.20;;;;;;;21.12;49.85;100858.61;107789;1283;21990;-59
2023/10/06 00:56:10;;;;;;;7.70;2.50;;;;;;;21.16;50.09;100853.59;107851;1289;22434;-65
2023/10/06 00:58:41;;;;;;;5.10;2.10;;;;;;;21.22;50.33;100855.23;107845;1283;22030;-59
2023/10/06 01:01:08;;;;;;;5.00;2.20;;;;;;;21.29;51.05;100861.18;107801;1289;21988;-65
2023/10/06 01:03:42;;;;;;;7.10;2.60;;;;;;;21.35;51.08;100862.45;107928;1289;21975;-60
2023/10/06 01:06:15;;;;;;;7.10;3.20;;;;;;;21.41;51.02;100861.82;107867;1280;22008;-66
2023/10/06 01:08:45;;;;;;;5.60;2.70;;;;;;;21.44;50.89;100855.60;107914;1279;22029;-65
2023/10/06 01:11:11;;;;;;;5.00;2.80;;;;;;;21.46;50.73;100849.41;107867;1289;22096;-59
2023/10/06 01:13:58;;;;;;;6.30;2.50;;;;;;;21.48;51.04;100843.81;107813;1280;21958;-65
2023/10/06 01:16:34;;;;;;;5.60;2.50;;;;;;;21.46;51.15;100840.30;107825;1279;21993;-65
2023/10/06 01:19:14;;;;;;;8.20;2.60;;;;;;;21.45;51.34;100838.27;107825;1281;22004;-65
2023/10/06 01:21:53;;;;;;;8.60;2.70;;;;;;;21.41;51.03;100835.75;107822;1289;21998;-65
2023/10/06 01:24:25;;;;;;;7.10;2.50;;;;;;;21.41;50.80;100839.13;107835;1289;21998;-65
2023/10/06 01:27:00;;;;;;;8.70;2.20;;;;;;;21.41;50.81;100846.33;107935;1280;21995;-65
2023/10/06 01:29:29;;;;;;;5.60;2.50;;;;;;;21.39;50.67;100851.05;107824;1289;22001;-65
2023/10/06 01:31:56;;;;;;;6.80;2.80;;;;;;;21.38;50.40;100854.14;107867;1289;22116;-59
2023/10/06 01:34:21;;;;;;;6.80;2.10;;;;;;;21.38;50.22;100850.91;107906;1282;21991;-59
2023/10/06 01:36:53;;;;;;;5.80;2.30;;;;;;;21.39;50.27;100846.58;107804;1280;21994;-64
2023/10/06 01:39:23;;;;;;;4.20;2.40;;;;;;;21.38;50.07;100844.65;107957;1283;21997;-59
2023/10/06 01:41:49;;;;;;;5.50;2.50;;;;;;;21.37;50.00;100842.94;107945;1289;21989;-65
2023/10/06 01:44:15;;;;;;;7.50;2.60;;;;;;;21.36;49.87;100841.89;107888;1289;22455;-59
2023/10/06 01:46:41;;;;;;;8.40;2.30;;;;;;;21.35;50.01;100838.19;107815;1283;21998;-65
2023/10/06 01:49:10;;;;;;;6.10;2.40;;;;;;;21.34;50.10;100838.95;107942;1289;21991;-60
2023/10/06 01:51:39;;;;;;;5.30;2.10;;;;;;;21.32;50.14;100841.90;107878;1289;21995;-65
2023/10/06 01:54:11;;;;;;;7.80;2.50;;;;;;;21.29;50.70;100841.52;107803;1289;21997;-65
2023/10/06 01:56:37;;;;;;;6.30;2.40;;;;;;;21.25;50.53;100842.27;107855;1289;22455;-65
2023/10/06 01:59:05;;;;;;;6.60;2.40;;;;;;;21.23;50.60;100848.61;107890;1287;22001;-59
2023/10/06 02:01:32;;;;;;;7.10;2.60;;;;;;;21.23;50.76;100849.86;107850;1289;21990;-63
2023/10/06 02:03:58;;;;;;;6.20;2.10;;;;;;;21.23;50.74;100855.01;107817;1289;23987;-65
2023/10/06 02:06:26;;;;;;;5.30;2.20;;;;;;;21.24;50.77;100855.51;107817;1289;22296;-64
2023/10/06 02:08:54;;;;;;;4.60;2.20;;;;;;;21.25;50.74;100855.43;107832;1289;22011;-59
2023/10/06 02:11:28;;;;;;;7.90;2.60;;;;;;;21.27;50.79;100853.95;107849;1289;21992;-60
2023/10/06 02:13:54;;;;;;;8.60;2.70;;;;;;;21.28;50.75;100854.06;107846;1289;22010;-59
2023/10/06 02:16:26;;;;;;;5.90;2.60;;;;;;;21.29;50.80;100855.47;107826;1289;21992;-59
2023/10/06 02:18:54;;;;;;;4.20;2.30;;;;;;;21.29;50.78;100852.80;107852;1289;21998;-66
2023/10/06 02:21:28;;;;;;;8.30;2.80;;;;;;;21.27;50.82;100850.54;107835;1279;21999;-65
2023/10/06 02:23:59;;;;;;;8.40;2.70;;;;;;;21.27;50.84;100847.00;107788;1283;21996;-59
2023/10/06 02:26:24;;;;;;;11.00;3.30;;;;;;;21.22;50.87;100847.21;107822;1287;22003;-59
2023/10/06 02:28:50;;;;;;;7.00;2.60;;;;;;;21.18;50.90;100846.55;107844;1280;22003;-59
2023/10/06 02:31:21;;;;;;;4.70;2.20;;;;;;;21.13;50.88;100844.12;107852;1289;22033;-65
2023/10/06 02:33:50;;;;;;;;;;;;;;;21.09;50.83;100839.67;107831;1289;21980;-59
2023/10/06 02:36:21;;;;;;;7.40;2.70;;;;;;;21.05;50.67;100839.13;107876;1288;21995;-60
2023/10/06 02:38:47;;;;;;;9.30;2.80;;;;;;;21.02;50.73;100839.63;107832;1289;21996;-61
2023/10/06 02:41:20;;;;;;;5.80;3.00;;;;;;;20.99;50.72;100841.01;107890;1283;21999;-66
2023/10/06 02:43:47;;;;;;;8.10;3.00;;;;;;;20.97;50.65;100843.83;107863;1280;21997;-59
2023/10/06 02:46:15;;;;;;;14.20;3.00;;;;;;;20.94;50.64;100842.16;107860;1289;21989;-59
2023/10/06 02:48:48;;;;;;;8.50;2.50;;;;;;;20.92;50.60;100840.29;107897;1289;24346;-59
2023/10/06 02:51:28;;;;;;;7.20;2.80;;;;;;;20.87;50.56;100838.56;107824;1285;22033;-59
2023/10/06 02:54:44;;;;;;;12.90;3.50;;;;;;;20.79;50.53;100842.85;107923;1284;21996;-66
2023/10/06 02:56:47;;;;;;;5.90;2.50;;;;;;;20.69;50.45;100842.07;107756;1289;22105;-66
2023/10/06 02:59:23;;;;;;;8.50;2.90;;;;;;;20.61;50.54;100838.34;107835;1288;22136;-63
2023/10/06 03:01:52;;;;;;;11.80;2.90;;;;;;;20.55;50.49;100839.85;107819;1283;21994;-66
2023/10/06 03:04:21;;;;;;;9.40;2.80;;;;;;;20.51;50.52;100837.39;107876;1289;21987;-65
2023/10/06 03:06:53;;;;;;;11.40;2.90;;;;;;;20.46;50.61;100832.61;107839;1287;23635;-59
2023/10/06 03:09:20;;;;;;;7.50;3.10;;;;;;;20.40;50.61;100831.28;107844;1289;21994;-67
2023/10/06 03:11:49;;;;;;;12.20;3.20;;;;;;;20.34;50.67;100822.66;107861;1288;21992;-65
2023/10/06 03:14:24;;;;;;;9.40;3.10;;;;;;;20.26;50.65;100821.25;107774;1289;22001;-66
2023/10/06 03:16:52;;;;;;;12.50;2.90;;;;;;;20.16;50.74;100819.39;107823;1283;22030;-59
2023/10/06 03:19:24;;;;;;;11.80;2.90;;;;;;;20.06;50.93;100815.52;107915;1283;21998;-66
2023/10/06 03:21:55;;;;;;;9.50;2.80;;;;;;;20.01;50.97;100819.52;107888;1287;21997;-67
2023/10/06 03:24:31;;;;;;;7.30;2.40;;;;;;;19.94;51.12;100820.70;107804;1283;23727;-59
2023/10/06 03:26:58;;;;;;;10.90;3.20;;;;;;;19.88;51.22;100821.48;107791;1280;21993;-66
2023/10/06 03:29:37;;;;;;;10.80;3.10;;;;;;;19.84;51.31;100820.75;107776;1289;21999;-59
2023/10/06 03:32:11;;;;;;;7.50;2.70;;;;;;;19.77;51.29;100824.79;107771;1289;22005;-59
2023/10/06 03:34:37;;;;;;;15.40;4.00;;;;;;;19.73;51.28;100829.63;107810;1279;21995;-60
2023/10/06 03:37:04;;;;;;;12.30;3.80;;;;;;;19.69;51.47;100832.64;107748;1290;22478;-66
2023/10/06 03:39:38;;;;;;;10.80;3.30;;;;;;;19.67;51.54;100838.41;107800;1286;21996;-66
2023/10/06 03:42:11;;;;;;;11.20;3.40;;;;;;;19.67;51.59;100840.73;107789;1286;22001;-59
2023/10/06 03:44:37;;;;;;;7.90;3.50;;;;;;;19.66;51.70;100841.80;107789;1289;21997;-66
2023/10/06 03:47:07;;;;;;;8.40;3.20;;;;;;;19.64;51.56;100839.94;107781;1283;21996;-67
2023/10/06 03:49:33;;;;;;;;;;;;;;;19.59;51.62;100838.73;107912;1286;21976;-67
2023/10/06 03:51:58;;;;;;;15.70;3.30;;;;;;;19.57;51.50;100834.57;107829;1279;21991;-67
2023/10/06 03:54:24;;;;;;;10.20;3.00;;;;;;;19.54;51.48;100833.96;107760;1283;22002;-66
2023/10/06 03:56:49;;;;;;;9.80;3.40;;;;;;;19.51;51.44;100826.46;107799;1284;21996;-59
2023/10/06 03:59:16;;;;;;;12.60;3.70;;;;;;;19.48;51.30;100822.29;107832;1283;22008;-67
2023/10/06 04:01:44;;;;;;;16.20;3.40;;;;;;;19.44;51.27;100820.67;107841;1283;21989;-59
2023/10/06 04:04:15;;;;;;;16.40;3.60;;;;;;;19.35;51.54;100830.64;107897;1289;21983;-59
2023/10/06 04:06:41;;;;;;;11.80;3.90;;;;;;;19.28;51.69;100840.37;107865;1289;21991;-67
2023/10/06 04:09:08;;;;;;;13.10;3.70;;;;;;;19.22;51.68;100844.90;107915;1289;21990;-59
2023/10/06 04:11:34;;;;;;;8.50;3.20;;;;;;;19.17;51.71;100849.38;107823;1289;22032;-66
2023/10/06 04:14:01;;;;;;;13.20;3.60;;;;;;;19.13;51.84;100850.77;107830;1280;21990;-66
2023/10/06 04:16:26;;;;;;;8.40;3.20;;;;;;;19.13;51.67;100855.60;107930;1283;21999;-67
2023/10/06 04:18:52;;;;;;;11.30;3.40;;;;;;;19.14;51.64;100861.06;107891;1289;22000;-65
2023/10/06 04:21:18;;;;;;;13.20;3.50;;;;;;;19.14;51.56;100864.27;107937;1289;21989;-59
2023/10/06 04:23:43;;;;;;;11.90;4.10;;;;;;;19.13;51.61;100867.14;107811;1289;21994;-59
2023/10/06 04:26:10;;;;;;;13.00;3.80;;;;;;;19.13;51.34;100870.16;107840;1289;22452;-67
2023/10/06 04:28:36;;;;;;;11.20;3.80;;;;;;;19.14;51.24;100874.40;107835;1286;22002;-66
2023/10/06 04:31:01;;;;;;;8.70;3.60;;;;;;;19.14;51.08;100879.54;107827;1289;21988;-61
2023/10/06 04:33:30;;;;;;;9.70;3.40;;;;;;;19.20;50.88;100878.79;107855;1283;22577;-66
2023/10/06 04:35:55;;;;;;;10.90;4.00;;;;;;;19.20;50.88;100883.97;107935;1287;22024;-59
2023/10/06 04:38:23;;;;;;;10.70;3.60;;;;;;;19.18;50.97;100891.33;107899;1285;22013;-66
2023/10/06 04:40:48;;;;;;;11.50;3.30;;;;;;;19.17;50.98;100899.00;107895;1289;22032;-67
2023/10/06 04:43:17;;;;;;;11.00;3.70;;;;;;;19.17;50.92;100905.07;107826;1279;22036;-67
2023/10/06 04:45:47;;;;;;;11.00;3.50;;;;;;;19.18;50.90;100905.20;107846;1283;21995;-66
2023/10/06 04:48:15;;;;;;;7.40;3.70;;;;;;;19.20;50.76;100905.48;108059;1289;21996;-66
2023/10/06 04:50:42;;;;;;;12.20;3.60;;;;;;;19.22;50.76;100910.55;107952;1289;22000;-58
2023/10/06 04:53:08;;;;;;;7.70;3.40;;;;;;;19.25;50.82;100914.86;107948;1289;21997;-65
2023/10/06 04:55:37;;;;;;;9.50;3.50;;;;;;;19.29;50.93;100919.84;107947;1289;21995;-59
2023/10/06 04:58:10;;;;;;;14.40;3.90;;;;;;;19.33;50.90;100922.91;107897;1289;22006;-59
2023/10/06 05:00:35;;;;;;;10.40;4.20;;;;;;;19.33;50.98;100929.49;107877;1289;21990;-59
2023/10/06 05:03:05;;;;;;;10.80;3.50;;;;;;;19.37;51.09;100935.77;107865;1289;21995;-59
2023/10/06 05:05:36;;;;;;;6.90;3.30;;;;;;;19.39;50.89;100938.00;107879;1283;21998;-58
2023/10/06 05:08:02;;;;;;;9.50;3.40;;;;;;;19.42;51.22;100943.20;107855;1288;21999;-66
2023/10/06 05:10:30;;;;;;;8.70;3.30;;;;;;;19.44;51.21;100946.84;107842;1287;21990;-58
2023/10/06 05:12:55;;;;;;;13.20;4.40;;;;;;;19.49;51.22;100950.20;107931;1289;22003;-72
2023/10/06 05:15:26;;;;;;;15.90;3.90;;;;;;;19.56;50.89;100949.59;107863;1289;22462;-60
2023/10/06 05:17:58;;;;;;;9.40;3.70;;;;;;;19.63;50.47;100951.79;107881;1289;21994;-59
2023/10/06 05:20:29;;;;;;;15.50;4.10;;;;;;;19.66;50.18;100949.89;107940;1289;22001;-66
2023/10/06 05:23:09;;;;;;;8.90;3.80;;;;;;;19.67;49.86;100950.74;107902;1289;21995;-65
2023/10/06 05:25:40;;;;;;;8.40;3.80;;;;;;;19.71;49.72;100951.65;107827;1289;23443;-58
2023/10/06 05:28:10;;;;;;;13.90;4.70;;;;;;;19.75;49.47;100951.48;107953;1289;21992;-66
2023/10/06 05:30:37;;;;;;;6.90;3.50;;;;;;;19.79;49.27;100948.30;107825;1289;22067;-59
2023/10/06 05:33:03;;;;;;;10.70;3.70;;;;;;;19.82;49.05;100944.26;107913;1287;23726;-59
2023/10/06 05:35:39;;;;;;;8.00;4.00;;;;;;;19.84;48.83;100944.15;107895;1285;22006;-65
2023/10/06 05:38:12;;;;;;;8.60;3.80;;;;;;;19.88;48.70;100942.41;107864;1285;22010;-65
2023/10/06 05:40:40;;;;;;;7.50;3.90;;;;;;;19.94;48.59;100950.89;107902;1289;22002;-58
2023/10/06 05:43:11;;;;;;;9.20;4.30;;;;;;;20.01;48.46;100953.27;107912;1289;22034;-67
2023/10/06 05:45:40;;;;;;;12.20;4.50;;;;;;;20.09;48.32;100956.13;107945;1288;21990;-66
2023/10/06 05:48:10;;;;;;;8.00;4.30;;;;;;;20.19;48.11;100959.46;107925;1283;22023;-58
2023/10/06 05:50:36;;;;;;;10.40;4.10;;;;;;;20.29;47.85;100961.70;107911;1289;21995;-58
2023/10/06 05:53:07;;;;;;;10.00;4.40;;;;;;;20.40;47.56;100966.55;107866;1289;21992;-66
2023/10/06 05:55:37;;;;;;;10.50;4.20;;;;;;;20.51;47.29;100975.19;107857;1284;22058;-66
2023/10/06 05:58:04;;;;;;;9.00;4.50;;;;;;;20.61;47.03;100977.38;107743;1289;22303;-57
2023/10/06 06:00:31;;;;;;;16.00;4.50;;;;;;;20.73;46.79;100984.36;107849;1287;22024;-67
2023/10/06 06:02:58;;;;;;;8.90;4.00;;;;;;;20.87;46.75;100989.81;107902;1287;22002;-59
2023/10/06 06:05:26;;;;;;;12.20;4.50;;;;;;;21.06;46.58;100994.30;107875;1289;22023;-58
2023/10/06 06:07:51;;;;;;;10.90;5.30;;;;;;;21.27;46.17;100995.11;107936;1289;21995;-58
2023/10/06 06:10:19;;;;;;;11.50;4.50;;;;;;;21.44;45.68;100998.05;107850;1287;21956;-61
2023/10/06 06:12:45;;;;;;;11.90;4.20;;;;;;;21.57;45.47;101001.35;107870;1285;21995;-64
2023/10/06 06:15:12;;;;;;;9.30;4.80;;;;;;;21.68;45.21;100999.07;107828;1289;21989;-65
2023/10/06 06:17:38;;;;;;;13.00;4.70;;;;;;;21.76;45.01;100999.23;107931;1280;22033;-64
2023/10/06 06:20:07;;;;;;;13.10;5.00;;;;;;;21.81;44.70;101004.66;107864;1283;21981;-59
2023/10/06 06:22:37;;;;;;;15.70;4.60;;;;;;;21.83;44.26;101003.15;107981;1289;21991;-66
2023/10/06 06:25:05;;;;;;;10.90;4.50;;;;;;;21.83;43.81;101002.07;107837;1287;22001;-65
2023/10/06 06:27:32;;;;;;;15.60;5.00;;;;;;;21.83;43.72;101001.38;107899;1289;21992;-65
2023/10/06 06:29:58;;;;;;;11.70;5.60;;;;;;;21.83;43.46;101004.95;107931;1284;21995;-67
2023/10/06 06:32:25;;;;;;;9.60;5.00;;;;;;;21.84;43.26;101008.85;107954;1289;22005;-57
2023/10/06 06:34:53;;;;;;;9.90;4.00;;;;;;;21.85;43.25;101008.96;107870;1289;21983;-67
2023/10/06 06:37:20;;;;;;;11.90;5.20;;;;;;;21.91;42.95;101000.45;107946;1288;21991;-57
2023/10/06 06:39:46;;;;;;;9.90;4.80;;;;;;;22.04;42.82;101005.17;107834;1289;23048;-57
2023/10/06 06:42:12;;;;;;;10.50;5.00;;;;;;;22.19;42.64;101003.67;107838;1289;21995;-67
2023/10/06 06:44:37;;;;;;;14.00;4.70;;;;;;;22.39;42.68;101001.25;107895;1289;21992;-58
2023/10/06 06:47:03;;;;;;;12.30;5.00;;;;;;;22.64;42.43;101001.20;107858;1287;21996;-66
2023/10/06 06:49:29;;;;;;;12.20;5.00;;;;;;;22.90;42.22;101000.92;107917;1289;21960;-66
2023/10/06 06:51:58;;;;;;;18.80;4.40;;;;;;;23.11;41.90;100999.39;107860;1279;22018;-58
2023/10/06 06:54:25;;;;;;;10.50;4.30;;;;;;;23.29;41.75;100994.88;107854;1280;22001;-67
2023/10/06 06:56:50;;;;;;;15.00;4.40;;;;;;;23.46;41.37;100991.40;107913;1289;21993;-57
2023/10/06 06:59:18;;;;;;;15.80;4.50;;;;;;;23.65;41.15;100988.15;107883;1289;21996;-58
2023/10/06 07:01:47;;;;;;;13.00;4.40;;;;;;;23.89;41.05;100984.84;107853;1289;22051;-66
2023/10/06 07:04:13;;;;;;;10.70;4.60;;;;;;;24.10;40.63;100984.02;107895;1287;21993;-57
2023/10/06 07:06:39;;;;;;;9.40;4.00;;;;;;;24.28;40.38;100985.79;107865;1289;21958;-65
2023/10/06 07:09:12;;;;;;;10.50;4.40;;;;;;;24.41;39.66;100987.84;107818;1284;21992;-58
2023/10/06 07:11:42;;;;;;;11.40;4.70;;;;;;;24.47;39.47;100991.66;107837;1289;22017;-64
2023/10/06 07:14:09;;;;;;;12.60;4.20;;;;;;;24.51;38.92;100989.09;107854;1289;21995;-58
2023/10/06 07:16:36;;;;;;;7.30;3.90;;;;;;;24.57;38.88;100987.28;107886;1288;22006;-58
2023/10/06 07:19:02;;;;;;;11.90;3.90;;;;;;;24.65;38.51;100990.17;107833;1289;21995;-58
2023/10/06 07:21:28;;;;;;;9.50;3.20;;;;;;;24.79;38.21;100994.91;107826;1289;21987;-63
2023/10/06 07:23:56;;;;;;;9.30;3.90;;;;;;;24.94;38.12;100991.80;107907;1289;22001;-65
2023/10/06 07:26:22;;;;;;;8.00;3.50;;;;;;;25.15;38.07;100991.60;107881;1289;21996;-65
2023/10/06 07:28:52;;;;;;;9.50;3.90;;;;;;;25.29;38.05;100987.98;107952;1289;22001;-58
2023/10/06 07:31:17;;;;;;;10.50;3.60;;;;;;;25.43;37.86;100990.54;107857;1289;22021;-65
2023/10/06 07:33:52;;;;;;;13.10;4.70;;;;;;;25.52;36.91;100990.49;107861;1289;22006;-58
2023/10/06 07:36:17;;;;;;;13.40;3.70;;;;;;;25.65;37.01;100991.96;107875;1289;21996;-59
2023/10/06 07:38:43;;;;;;;13.80;4.20;;;;;;;25.74;36.87;100997.49;107841;1287;21995;-64
2023/10/06 07:41:17;;;;;;;8.70;4.00;;;;;;;25.76;36.63;100998.06;107847;1289;22113;-59
2023/10/06 07:43:42;;;;;;;11.70;4.10;;;;;;;25.78;36.74;100997.23;107886;1277;23650;-58
2023/10/06 07:46:10;;;;;;;7.30;3.60;;;;;;;25.88;36.87;101000.16;107937;1287;21986;-58
2023/10/06 07:48:36;;;;;;;12.70;3.80;;;;;;;26.02;36.52;101001.42;107892;1289;21992;-58
2023/10/06 07:51:08;;;;;;;7.50;3.60;;;;;;;26.12;35.70;100997.29;107897;1279;22032;-65
2023/10/06 07:53:38;;;;;;;7.90;3.10;;;;;;;26.28;35.77;100998.21;107832;1289;21994;-67
2023/10/06 07:56:06;;;;;;;12.30;4.00;;;;;;;26.51;35.32;100996.64;107870;1288;22027;-64
2023/10/06 07:58:37;;;;;;;6.70;3.50;;;;;;;26.67;34.91;100995.52;107896;1277;23044;-65
2023/10/06 08:01:07;;;;;;;17.10;3.00;;;;;;;26.79;35.20;100997.19;107890;1281;22000;-61
2023/10/06 08:03:41;;;;;;;10.50;3.70;;;;;;;26.90;34.91;100999.70;107863;1289;21990;-60
2023/10/06 08:06:07;;;;;;;9.60;3.60;;;;;;;27.09;34.99;100993.63;107978;1289;21996;-59
2023/10/06 08:08:33;;;;;;;12.80;3.80;;;;;;;27.29;34.61;100995.83;107890;1283;23650;-65
2023/10/06 08:11:03;;;;;;;8.70;3.20;;;;;;;27.43;34.18;101001.47;107823;1289;21965;-66
2023/10/06 08:13:30;;;;;;;11.70;3.70;;;;;;;27.52;33.28;101000.11;107855;1280;23762;-66
2023/10/06 08:16:08;;;;;;;11.00;3.70;;;;;;;27.63;33.46;100998.95;107872;1289;22827;-59
2023/10/06 08:18:34;;;;;;;9.50;3.30;;;;;;;27.72;33.05;101003.16;107834;1289;21995;-66
2023/10/06 08:21:03;;;;;;;11.70;3.60;;;;;;;27.75;33.18;101003.81;107818;1280;21961;-65
2023/10/06 08:23:29;;;;;;;10.30;3.60;;;;;;;27.86;32.33;100999.59;107862;1289;21993;-59
2023/10/06 08:25:56;;;;;;;7.80;3.40;;;;;;;27.92;32.14;101004.71;107846;1280;21994;-60
2023/10/06 08:28:24;;;;;;;9.50;3.20;;;;;;;27.92;32.27;101001.63;107879;1283;21998;-59
2023/10/06 08:30:50;;;;;;;6.00;2.90;;;;;;;27.97;32.24;101001.27;107868;1283;22747;-67
2023/10/06 08:33:16;;;;;;;12.60;4.60;;;;;;;28.08;32.41;100995.95;107892;1289;22012;-66
2023/10/06 08:35:41;;;;;;;9.90;3.40;;;;;;;28.11;31.97;100996.56;107864;1289;21996;-59
2023/10/06 08:38:07;;;;;;;7.70;3.40;;;;;;;28.20;32.03;100997.73;107766;1277;21995;-60
2023/10/06 08:40:35;;;;;;;11.50;3.70;;;;;;;28.23;31.76;100993.34;107824;1289;21995;-64
2023/10/06 08:43:01;;;;;;;10.90;3.80;;;;;;;28.26;31.71;100997.14;107912;1289;23641;-59
2023/10/06 08:45:28;;;;;;;10.00;3.20;;;;;;;28.37;31.96;100993.20;107822;1289;22001;-59
2023/10/06 08:48:01;;;;;;;8.40;3.60;;;;;;;28.49;31.59;100986.51;107881;1289;22007;-64
2023/10/06 08:50:27;;;;;;;7.20;3.60;;;;;;;28.58;31.14;100985.58;107876;1283;23743;-60
2023/10/06 08:52:54;;;;;;;9.00;3.10;;;;;;;28.66;30.57;100991.27;107810;1283;22328;-59
2023/10/06 08:55:21;;;;;;;12.20;3.60;;;;;;;28.72;30.01;100989.17;107831;1289;21998;-65
2023/10/06 08:57:47;;;;;;;12.50;3.70;;;;;;;28.79;30.23;100988.83;107861;1289;23650;-66
2023/10/06 09:00:15;;;;;;;8.90;3.70;;;;;;;28.87;30.46;100991.44;107829;1289;21994;-66
2023/10/06 09:02:43;;;;;;;10.50;3.70;;;;;;;28.90;30.30;100992.28;107870;1283;22004;-60
2023/10/06 09:05:13;;;;;;;13.90;4.20;;;;;;;28.98;30.24;100993.81;107917;1279;22004;-59
2023/10/06 09:08:00;;;;;;;10.70;4.20;;;;;;;29.04;30.09;100994.42;107878;1289;22057;-65
2023/10/06 09:10:27;;;;;;;13.40;4.10;;;;;;;29.03;29.76;100993.93;107871;1289;22004;-59
2023/10/06 09:13:02;;;;;;;12.70;4.20;;;;;;;29.08;29.78;100993.42;107867;1289;22008;-59
2023/10/06 09:15:29;;;;;;;12.80;4.20;;;;;;;29.06;29.18;100990.68;107860;1289;22003;-64
2023/10/06 09:17:56;;;;;;;9.80;3.60;;;;;;;29.07;28.95;100995.11;107883;1289;21999;-65
2023/10/06 09:20:36;;;;;;;12.50;3.70;;;;;;;29.05;29.34;100997.04;107859;1280;22033;-65
2023/10/06 09:23:03;;;;;;;10.50;3.90;;;;;;;29.12;29.24;100994.71;107829;1289;21996;-65
2023/10/06 09:25:41;;;;;;;7.30;3.80;;;;;;;29.19;29.04;101000.30;107948;1289;21995;-65
2023/10/06 09:28:13;;;;;;;7.80;3.10;;;;;;;29.24;29.01;100999.33;107845;1282;22012;-64
2023/10/06 09:30:56;;;;;;;13.30;3.90;;;;;;;29.32;28.73;100995.05;108705;1286;21995;-64
2023/10/06 09:33:24;;;;;;;8.00;4.10;;;;;;;29.40;27.98;101001.00;107856;1289;21996;-64
2023/10/06 09:36:09;;;;;;;8.80;3.60;;;;;;;29.40;28.09;100995.03;107821;1289;24355;-59
2023/10/06 09:38:36;;;;;;;16.10;4.00;;;;;;;29.42;28.17;100996.23;107870;1289;21995;-60
2023/10/06 09:41:02;;;;;;;19.10;4.10;;;;;;;29.45;28.01;100997.33;107899;1289;23747;-58
2023/10/06 09:43:32;;;;;;;9.00;3.80;;;;;;;29.37;27.44;100999.14;107872;1289;23851;-64
2023/10/06 09:45:58;;;;;;;34.20;5.00;;;;;;;29.28;27.40;100995.39;107882;1282;21965;-59
2023/10/06 09:48:26;;;;;;;16.60;5.20;;;;;;;29.24;27.35;100999.31;107835;1289;22015;-58
2023/10/06 09:50:53;;;;;;;18.50;3.90;;;;;;;29.25;26.96;101000.34;107764;1280;22459;-64
2023/10/06 09:53:19;;;;;;;8.40;3.40;;;;;;;29.19;27.17;100993.83;107848;1289;23060;-66
2023/10/06 09:55:45;;;;;;;11.10;3.70;;;;;;;29.27;27.58;100996.41;107817;1289;22003;-58
2023/10/06 09:58:11;;;;;;;9.80;3.90;;;;;;;29.29;27.54;100996.39;107753;1289;21983;-58
2023/10/06 10:00:40;;;;;;;9.40;3.90;;;;;;;29.38;27.72;100993.50;107853;1285;21995;-59
2023/10/06 10:03:07;;;;;;;8.90;3.80;;;;;;;29.58;27.69;100993.68;107856;1283;22524;-58
2023/10/06 10:05:33;;;;;;;10.30;4.10;;;;;;;29.69;27.43;100991.14;107873;1283;22002;-59
2023/10/06 10:07:58;;;;;;;14.70;4.50;;;;;;;29.73;27.10;100985.45;108022;1289;22474;-64
2023/10/06 10:10:24;;;;;;;9.60;4.70;;;;;;;29.56;27.08;100983.02;107891;1287;21998;-60
2023/10/06 10:13:19;;;;;;;17.40;4.50;;;;;;;29.28;26.75;100988.15;107905;1285;22008;-58
2023/10/06 10:16:04;;;;;;;10.40;4.00;;;;;;;29.07;26.55;100988.62;107880;1289;22003;-58
2023/10/06 10:18:36;;;;;;;8.60;3.40;;;;;;;29.01;26.99;100987.30;107842;1279;21999;-65
2023/10/06 10:21:04;;;;;;;15.80;4.00;;;;;;;29.05;26.99;100976.45;107872;1289;22037;-64
2023/10/06 10:23:30;;;;;;;10.30;3.70;;;;;;;29.08;27.13;100969.89;107814;1289;21990;-65
2023/10/06 10:26:22;;;;;;;9.10;3.00;;;;;;;29.20;27.15;100971.33;107881;1289;21991;-65
2023/10/06 10:29:24;;;;;;;9.70;2.70;;;;;;;29.39;27.11;100969.96;107866;1289;22056;-58
2023/10/06 10:32:03;;;;;;;6.00;2.90;;;;;;;29.59;27.48;100961.20;107436;1295;22370;-66
2023/10/06 10:34:38;;;;;;;12.30;2.80;;;;;;;29.74;26.78;100961.80;109944;1289;21933;-64
2023/10/06 10:37:05;;;;;;;6.00;2.30;;;;;;;29.83;26.44;100952.70;107850;1289;22008;-65
2023/10/06 10:39:49;;;;;;;13.70;2.70;;;;;;;29.92;26.44;100957.02;107848;1279;22109;-59
2023/10/06 10:42:38;;;;;;;8.50;2.80;;;;;;;30.02;26.48;100961.09;107680;1289;22004;-59
2023/10/06 10:45:34;;;;;;;8.90;2.60;;;;;;;30.11;26.36;100962.33;107901;1289;22004;-59
2023/10/06 10:48:15;;;;;;;14.50;3.00;;;;;;;30.09;25.84;100961.17;107880;1289;22014;-66
2023/10/06 10:50:52;;;;;;;15.60;2.80;;;;;;;30.03;25.49;100963.42;107857;1289;21997;-59
2023/10/06 10:53:21;;;;;;;;;;;;;;;29.98;25.55;100959.99;107864;1289;21974;-60
2023/10/06 10:55:50;;;;;;;9.50;3.20;;;;;;;29.92;25.88;100959.39;107887;1289;22012;-65
2023/10/06 10:58:41;;;;;;;17.40;4.10;;;;;;;29.90;25.48;100964.58;107903;1289;21997;-58
2023/10/06 11:01:29;;;;;;;15.50;3.40;;;;;;;29.80;25.52;100970.50;107818;1289;22051;-65
2023/10/06 11:04:21;;;;;;;5.20;2.50;;;;;;;29.78;25.90;100975.39;107878;1289;21962;-64
2023/10/06 11:06:50;;;;;;;15.50;3.00;;;;;;;29.78;25.40;100975.22;107862;1289;22016;-58
2023/10/06 11:12:25;;;;;;;14.90;2.90;;;;;;;29.73;25.68;100974.17;107879;1286;22047;-65
2023/10/06 11:14:52;;;;;;;17.90;3.90;;;;;;;29.76;25.65;100972.88;107849;1289;22033;-64
2023/10/06 11:17:22;;;;;;;7.60;2.80;;;;;;;29.73;24.74;100971.84;107851;1289;22464;-63
2023/10/06 11:20:00;;;;;;;8.10;2.30;;;;;;;29.54;24.81;100974.30;107888;1289;22014;-64
2023/10/06 11:22:27;;;;;;;6.80;2.40;;;;;;;29.54;25.48;100969.61;107858;1289;21985;-58
2023/10/06 11:24:57;;;;;;;10.20;2.40;;;;;;;29.63;25.39;100970.83;107846;1289;22008;-59
2023/10/06 11:27:23;;;;;;;11.90;2.60;;;;;;;29.67;24.74;100970.89;107571;1286;178830;-64
2023/10/06 11:29:52;;;;;;;9.50;2.50;;;;;;;29.61;24.81;100972.27;107851;1289;22005;-59